Time;durP1;ratioP1;P1;durP2;ratioP2;P2;SDS_P1;SDS_P2;PMS_P1;PMS_P2;Temp;Humidity;BMP_temperature;BMP_pressure;BME280_temperature;BME280_humidity;BME280_pressure;Samples;Min_cycle;Max_cycle;Signal;HPM_P1;HPM_P2
2023/11/15 00:01:45;;;;;;;3.73;1.60;;;;;;;10.01;100.00;99394.88;4736864;30;20207;-66
2023/11/15 00:04:19;;;;;;;2.58;1.08;;;;;;;10.02;100.00;99396.50;4746687;30;20494;-67
2023/11/15 00:06:50;;;;;;;2.83;1.93;;;;;;;9.94;100.00;99393.34;4749940;30;20212;-68
2023/11/15 00:09:21;;;;;;;1.42;1.25;;;;;;;9.88;100.00;99400.50;4734862;30;20466;-68
2023/11/15 00:11:52;;;;;;;1.30;0.73;;;;;;;9.89;100.00;99406.72;4732429;30;20246;-67
2023/11/15 00:14:22;;;;;;;1.30;1.02;;;;;;;9.84;100.00;99406.59;4734705;30;20629;-67
2023/11/15 00:16:55;;;;;;;1.40;1.00;;;;;;;9.83;100.00;99403.06;4734069;30;20259;-68
2023/11/15 00:19:30;;;;;;;2.17;1.80;;;;;;;9.93;100.00;99408.72;4730989;30;20471;-66
2023/11/15 00:22:00;;;;;;;1.17;0.83;;;;;;;9.97;100.00;99409.88;4749533;30;20196;-68
2023/11/15 00:24:32;;;;;;;1.00;0.60;;;;;;;9.85;100.00;99406.38;4749716;30;21044;-67
2023/11/15 00:27:03;;;;;;;1.00;0.80;;;;;;;9.84;100.00;99404.72;4734531;30;20569;-67
2023/11/15 00:29:36;;;;;;;4.90;1.08;;;;;;;9.77;100.00;99406.72;4748586;30;20628;-67
2023/11/15 00:32:10;;;;;;;1.20;1.00;;;;;;;9.88;100.00;99405.88;4734384;30;20983;-68
2023/11/15 00:34:40;;;;;;;1.10;0.90;;;;;;;9.94;100.00;99409.53;4746115;30;20488;-67
2023/11/15 00:37:10;;;;;;;1.85;0.80;;;;;;;9.90;100.00;99411.91;4749554;30;20212;-67
2023/11/15 00:39:42;;;;;;;1.50;1.00;;;;;;;9.89;100.00;99412.13;4735747;30;20250;-67
2023/11/15 00:42:13;;;;;;;2.33;1.10;;;;;;;9.86;100.00;99416.13;4735705;30;20196;-67
2023/11/15 00:44:44;;;;;;;1.90;0.83;;;;;;;9.90;100.00;99420.00;4734676;30;20483;-67
2023/11/15 00:47:18;;;;;;;11.03;1.30;;;;;;;9.92;100.00;99420.56;4748957;30;20468;-65
2023/11/15 00:49:50;;;;;;;1.83;1.27;;;;;;;9.85;100.00;99427.97;4749081;30;20497;-67
2023/11/15 00:52:20;;;;;;;1.40;0.90;;;;;;;9.88;100.00;99434.78;4734276;30;20470;-67
2023/11/15 00:54:52;;;;;;;4.30;0.90;;;;;;;9.83;100.00;99435.47;4734208;30;20599;-67
2023/11/15 00:57:23;;;;;;;1.80;0.98;;;;;;;9.90;100.00;99436.22;4731533;30;20467;-67
2023/11/15 00:59:54;;;;;;;1.90;1.35;;;;;;;9.78;100.00;99438.06;4734958;30;20208;-65
2023/11/15 01:02:27;;;;;;;2.15;1.48;;;;;;;9.79;100.00;99434.31;4735916;30;20232;-67
2023/11/15 01:04:57;;;;;;;3.30;1.43;;;;;;;9.86;100.00;99443.16;4734888;30;20690;-66
2023/11/15 01:07:28;;;;;;;1.25;0.98;;;;;;;9.92;100.00;99450.28;4733982;30;20917;-65
2023/11/15 01:09:59;;;;;;;4.25;1.00;;;;;;;9.86;100.00;99445.84;4749134;30;20549;-68
2023/11/15 01:12:29;;;;;;;1.27;1.02;;;;;;;9.87;100.00;99455.59;4734828;30;20213;-67
2023/11/15 01:14:59;;;;;;;1.80;0.88;;;;;;;9.80;100.00;99452.16;4734877;30;20236;-67
2023/11/15 01:17:33;;;;;;;5.53;0.90;;;;;;;9.75;100.00;99460.16;4734152;30;20254;-68
2023/11/15 01:20:05;;;;;;;2.77;0.90;;;;;;;9.80;100.00;99452.16;4748933;30;20465;-66
2023/11/15 01:22:35;;;;;;;8.00;1.23;;;;;;;9.84;100.00;99458.75;4733565;30;20466;-67
2023/11/15 01:25:07;;;;;;;1.00;0.63;;;;;;;9.84;100.00;99469.56;4748614;30;21098;-67
2023/11/15 01:27:37;;;;;;;1.97;1.10;;;;;;;9.82;100.00;99466.28;4733726;30;20800;-67
2023/11/15 01:30:09;;;;;;;3.20;1.00;;;;;;;9.86;100.00;99466.63;4744729;30;20817;-67
2023/11/15 01:32:41;;;;;;;1.47;1.33;;;;;;;9.87;100.00;99452.91;4748030;30;20485;-67
2023/11/15 01:35:12;;;;;;;1.53;1.10;;;;;;;9.90;100.00;99465.94;4733209;30;20540;-68
2023/11/15 01:37:43;;;;;;;2.43;1.33;;;;;;;9.87;100.00;99474.50;4734804;30;20443;-66
2023/11/15 01:40:13;;;;;;;0.95;0.70;;;;;;;9.98;100.00;99475.56;4747532;30;20498;-66
2023/11/15 01:42:43;;;;;;;1.87;0.90;;;;;;;9.89;100.00;99472.38;4745890;30;20208;-67
2023/11/15 01:45:13;;;;;;;1.90;1.30;;;;;;;9.84;100.00;99477.66;4747483;30;20498;-67
2023/11/15 01:47:45;;;;;;;3.07;1.77;;;;;;;9.90;100.00;99479.44;4748094;30;20567;-67
2023/11/15 01:50:15;;;;;;;1.50;1.20;;;;;;;9.89;100.00;99472.38;4745449;30;20463;-67
2023/11/15 01:52:48;;;;;;;1.52;0.90;;;;;;;9.89;100.00;99485.91;4733054;30;20538;-67
2023/11/15 01:55:21;;;;;;;1.73;0.87;;;;;;;9.85;100.00;99498.22;4746355;30;20204;-67
2023/11/15 01:57:54;;;;;;;2.30;1.10;;;;;;;9.88;100.00;99496.94;4732657;30;20487;-67
2023/11/15 02:00:26;;;;;;;1.70;1.13;;;;;;;9.87;100.00;99493.44;4732832;30;20489;-68
2023/11/15 02:03:01;;;;;;;1.50;0.77;;;;;;;9.83;100.00;99494.91;4747635;30;20465;-66
2023/11/15 02:05:32;;;;;;;2.90;1.73;;;;;;;9.87;100.00;99506.94;4744427;30;20458;-67
2023/11/15 02:08:03;;;;;;;2.03;0.80;;;;;;;9.95;100.00;99503.06;4737609;30;20516;-66
2023/11/15 02:10:35;;;;;;;4.07;1.30;;;;;;;9.99;100.00;99498.84;4736372;30;20505;-67
2023/11/15 02:13:20;;;;;;;1.57;1.03;;;;;;;9.89;100.00;99504.81;4735497;30;20486;-67
2023/11/15 02:15:52;;;;;;;2.23;1.67;;;;;;;9.86;100.00;99497.19;4732793;30;20768;-66
2023/11/15 02:18:23;;;;;;;4.23;3.87;;;;;;;9.95;100.00;99498.50;4732933;30;20483;-65
2023/11/15 02:20:54;;;;;;;2.10;1.10;;;;;;;9.86;100.00;99499.88;4731867;30;20436;-66
2023/11/15 02:23:26;;;;;;;1.33;1.23;;;;;;;9.92;100.00;99509.75;4746712;30;20518;-68
2023/11/15 02:25:58;;;;;;;3.30;1.43;;;;;;;9.89;100.00;99510.22;4732450;30;20449;-66
2023/11/15 02:28:28;;;;;;;1.60;0.90;;;;;;;9.85;100.00;99519.84;4747447;30;20861;-68
2023/11/15 02:30:59;;;;;;;3.90;2.13;;;;;;;9.89;100.00;99526.44;4732315;30;20439;-67
2023/11/15 02:33:29;;;;;;;3.57;2.33;;;;;;;9.98;100.00;99525.03;4730977;30;20494;-66
2023/11/15 02:36:01;;;;;;;6.70;1.70;;;;;;;9.94;100.00;99531.97;4733605;30;20978;-67
2023/11/15 02:38:31;;;;;;;4.03;1.70;;;;;;;9.90;100.00;99543.47;4733540;30;20433;-66
2023/11/15 02:41:03;;;;;;;2.40;1.47;;;;;;;9.87;100.00;99533.97;4733231;30;20432;-67
2023/11/15 02:43:35;;;;;;;5.13;1.70;;;;;;;9.89;100.00;99539.94;4733170;30;20521;-69
2023/11/15 02:46:12;;;;;;;2.92;1.70;;;;;;;9.83;100.00;99551.66;4729558;30;20467;-66
2023/11/15 02:48:43;;;;;;;4.00;1.30;;;;;;;9.81;100.00;99551.06;4746741;30;20204;-66
2023/11/15 02:51:13;;;;;;;2.43;1.47;;;;;;;9.74;100.00;99554.91;4732669;30;20200;-66
2023/11/15 02:53:43;;;;;;;2.27;1.63;;;;;;;9.73;100.00;99547.88;4732605;30;20469;-66
2023/11/15 02:56:16;;;;;;;2.03;1.40;;;;;;;9.74;100.00;99552.22;4747006;30;20463;-67
2023/11/15 02:58:46;;;;;;;4.15;1.45;;;;;;;9.79;100.00;99550.47;4747137;30;20454;-67
2023/11/15 03:01:17;;;;;;;2.30;1.67;;;;;;;9.81;100.00;99559.19;4729374;30;20296;-66
2023/11/15 03:03:48;;;;;;;1.40;1.30;;;;;;;9.81;100.00;99564.59;4745667;30;20532;-66
2023/11/15 03:06:19;;;;;;;1.63;0.90;;;;;;;9.83;100.00;99569.75;4730600;30;20532;-67
2023/11/15 03:08:50;;;;;;;2.73;1.53;;;;;;;9.80;100.00;99573.75;4744936;30;20443;-67
2023/11/15 03:11:21;;;;;;;1.88;0.90;;;;;;;9.68;100.00;99585.56;4730112;30;20826;-66
2023/11/15 03:13:52;;;;;;;1.67;1.10;;;;;;;9.81;100.00;99588.91;4728595;30;20228;-66
2023/11/15 03:16:23;;;;;;;4.37;1.37;;;;;;;9.78;100.00;99605.53;4746828;30;20204;-66
2023/11/15 03:18:53;;;;;;;1.35;1.17;;;;;;;9.65;100.00;99600.31;4732953;30;20421;-66
2023/11/15 03:21:23;;;;;;;2.75;1.15;;;;;;;9.75;100.00;99600.63;4732722;30;20208;-66
2023/11/15 03:23:53;;;;;;;3.57;1.47;;;;;;;9.69;100.00;99606.91;4745828;30;20275;-66
2023/11/15 03:26:26;;;;;;;8.45;1.90;;;;;;;9.72;100.00;99611.88;4729908;30;21005;-66
2023/11/15 03:28:56;;;;;;;4.20;1.60;;;;;;;9.70;100.00;99626.66;4747201;30;20200;-67
2023/11/15 03:31:26;;;;;;;3.00;1.00;;;;;;;9.57;100.00;99635.75;4730778;30;20719;-66
2023/11/15 03:33:57;;;;;;;2.22;0.98;;;;;;;9.40;100.00;99634.69;4731928;30;20906;-67
2023/11/15 03:36:27;;;;;;;2.78;1.42;;;;;;;9.31;100.00;99646.84;4729204;30;20219;-68
2023/11/15 03:38:59;;;;;;;3.85;1.48;;;;;;;9.26;100.00;99649.38;4745369;30;20319;-67
2023/11/15 03:41:31;;;;;;;1.45;0.80;;;;;;;9.21;100.00;99641.13;4743682;30;20336;-66
2023/11/15 03:44:02;;;;;;;1.98;1.08;;;;;;;9.15;100.00;99638.28;4746729;30;20324;-67
2023/11/15 03:46:32;;;;;;;1.40;0.90;;;;;;;9.10;100.00;99646.22;4745652;30;20236;-67
2023/11/15 03:49:03;;;;;;;3.65;1.60;;;;;;;8.97;100.00;99651.75;4744593;30;20208;-67
2023/11/15 03:51:33;;;;;;;1.52;0.85;;;;;;;8.93;100.00;99658.63;4746514;30;20262;-68
2023/11/15 03:54:05;;;;;;;2.55;0.80;;;;;;;8.89;100.00;99662.84;4730560;30;20216;-66
2023/11/15 03:56:36;;;;;;;1.52;1.10;;;;;;;8.84;100.00;99668.06;4731725;30;20297;-67
2023/11/15 03:59:06;;;;;;;1.83;0.93;;;;;;;8.83;100.00;99679.88;4732618;30;20206;-67
2023/11/15 04:01:37;;;;;;;1.33;0.77;;;;;;;8.75;100.00;99682.03;4731675;30;20270;-66
2023/11/15 04:04:23;;;;;;;1.15;1.05;;;;;;;8.69;100.00;99681.03;4730512;30;20231;-67
2023/11/15 04:06:57;;;;;;;2.88;1.10;;;;;;;8.69;100.00;99679.19;4745864;30;20239;-66
2023/11/15 04:09:27;;;;;;;2.83;1.13;;;;;;;8.61;100.00;99692.94;4748636;30;20223;-68
2023/11/15 04:11:58;;;;;;;1.00;0.80;;;;;;;8.55;100.00;99691.09;4747668;30;20212;-67
2023/11/15 04:14:29;;;;;;;1.20;0.60;;;;;;;8.67;100.00;99710.09;4747437;30;20266;-67
2023/11/15 04:17:00;;;;;;;1.55;1.10;;;;;;;8.77;100.00;99715.81;4748125;30;20204;-68
2023/11/15 04:19:30;;;;;;;1.48;1.33;;;;;;;8.84;100.00;99726.56;4745372;30;20239;-68
2023/11/15 04:22:01;;;;;;;1.45;0.70;;;;;;;8.86;100.00;99728.00;4747519;30;20303;-65
2023/11/15 04:24:44;;;;;;;1.40;1.05;;;;;;;8.75;100.00;99733.28;4733365;30;20243;-67
2023/11/15 04:27:16;;;;;;;2.85;1.00;;;;;;;8.59;100.00;99745.41;4749529;30;20238;-67
2023/11/15 04:29:46;;;;;;;0.90;0.60;;;;;;;8.58;100.00;99738.38;4748746;30;20594;-67
2023/11/15 04:32:17;;;;;;;0.90;0.60;;;;;;;8.47;100.00;99750.66;4734399;30;20575;-66
2023/11/15 04:34:47;;;;;;;3.15;0.77;;;;;;;8.38;100.00;99753.81;4729748;30;20235;-67
2023/11/15 04:37:19;;;;;;;1.10;0.70;;;;;;;8.39;100.00;99766.25;4746204;30;20624;-67
2023/11/15 04:39:49;;;;;;;1.30;0.95;;;;;;;8.44;100.00;99774.53;4745631;30;20207;-67
2023/11/15 04:42:21;;;;;;;1.27;0.63;;;;;;;8.40;100.00;99776.84;4734076;30;20287;-67
2023/11/15 04:44:53;;;;;;;1.60;0.70;;;;;;;8.35;100.00;99781.22;4746721;30;20224;-68
2023/11/15 04:47:23;;;;;;;1.20;0.70;;;;;;;8.36;100.00;99788.28;4735563;30;20239;-68
2023/11/15 04:49:53;;;;;;;1.70;0.70;;;;;;;8.28;100.00;99784.72;4734501;30;20258;-67
2023/11/15 04:52:25;;;;;;;5.68;1.23;;;;;;;8.25;100.00;99795.13;4735947;30;20200;-67
2023/11/15 04:54:56;;;;;;;0.90;0.50;;;;;;;8.22;100.00;99804.47;4734241;30;20273;-67
2023/11/15 04:57:29;;;;;;;1.23;0.80;;;;;;;8.09;100.00;99809.06;4735746;30;20287;-67
2023/11/15 05:00:00;;;;;;;1.00;0.55;;;;;;;7.93;100.00;99809.53;4749606;30;20680;-67
2023/11/15 05:02:31;;;;;;;1.17;1.05;;;;;;;7.87;100.00;99819.28;4734219;30;20207;-67
2023/11/15 05:05:02;;;;;;;0.98;0.60;;;;;;;7.86;100.00;99823.84;4735047;30;20558;-66
2023/11/15 05:07:34;;;;;;;4.00;1.65;;;;;;;7.83;100.00;99828.84;4746701;30;20306;-69
2023/11/15 05:10:05;;;;;;;1.42;0.65;;;;;;;7.93;100.00;99831.91;4730971;30;20200;-66
2023/11/15 05:12:36;;;;;;;1.98;1.00;;;;;;;8.02;100.00;99835.22;4733865;30;20208;-67
2023/11/15 05:15:09;;;;;;;2.95;1.35;;;;;;;8.05;100.00;99842.84;4734970;30;20777;-67
2023/11/15 05:17:47;;;;;;;4.53;0.80;;;;;;;8.00;100.00;99846.19;4733496;30;20309;-67
2023/11/15 05:20:17;;;;;;;3.60;0.73;;;;;;;7.93;100.00;99841.88;4733237;30;20204;-67
2023/11/15 05:22:48;;;;;;;0.90;0.60;;;;;;;7.90;100.00;99855.72;4733142;30;20239;-66
2023/11/15 05:25:21;;;;;;;0.80;0.50;;;;;;;7.95;100.00;99851.38;4733393;30;20683;-68
2023/11/15 05:27:54;;;;;;;0.90;0.60;;;;;;;8.00;100.00;99851.56;4734721;30;20193;-68
2023/11/15 05:30:24;;;;;;;1.73;0.85;;;;;;;7.89;100.00;99868.38;4731902;30;20212;-68
2023/11/15 05:32:55;;;;;;;5.43;0.70;;;;;;;7.92;100.00;99867.97;4733681;30;20211;-68
2023/11/15 05:35:26;;;;;;;1.30;1.15;;;;;;;7.84;100.00;99873.59;4733309;30;20285;-68
2023/11/15 05:37:57;;;;;;;2.30;0.95;;;;;;;7.92;100.00;99867.97;4747885;30;20309;-68
2023/11/15 05:40:27;;;;;;;1.38;0.70;;;;;;;7.88;100.00;99872.13;4732911;30;20208;-68
2023/11/15 05:42:59;;;;;;;0.90;0.73;;;;;;;7.81;100.00;99884.75;4733591;30;20216;-67
2023/11/15 05:45:30;;;;;;;1.10;0.50;;;;;;;7.79;100.00;99892.25;4733679;30;20332;-67
2023/11/15 05:48:01;;;;;;;0.90;0.80;;;;;;;7.74;100.00;99900.09;4733032;30;20687;-66
2023/11/15 05:50:32;;;;;;;1.33;0.90;;;;;;;7.72;100.00;99899.47;4733198;30;20585;-66
2023/11/15 05:53:03;;;;;;;2.05;0.60;;;;;;;7.68;100.00;99909.84;4732943;30;20217;-67
2023/11/15 05:55:34;;;;;;;1.00;0.70;;;;;;;7.65;100.00;99920.22;4732777;30;20216;-67
2023/11/15 05:58:06;;;;;;;1.02;0.70;;;;;;;7.66;100.00;99921.84;4744634;30;20200;-67
2023/11/15 06:00:37;;;;;;;0.90;0.50;;;;;;;7.67;100.00;99928.88;4732758;30;20684;-67
2023/11/15 06:03:09;;;;;;;4.35;1.10;;;;;;;7.70;100.00;99933.84;4734492;30;20275;-70
2023/11/15 06:05:39;;;;;;;0.95;0.70;;;;;;;7.64;100.00;99940.09;4733680;30;20728;-66
2023/11/15 06:08:10;;;;;;;1.10;0.70;;;;;;;7.65;100.00;99947.94;4733688;30;20264;-66
2023/11/15 06:10:40;;;;;;;1.20;0.70;;;;;;;7.61;100.00;99956.63;4733544;30;20234;-67
2023/11/15 06:13:15;;;;;;;1.00;0.70;;;;;;;7.53;100.00;99949.59;4733843;30;20320;-65
2023/11/15 06:15:46;;;;;;;2.60;1.75;;;;;;;7.46;100.00;99961.38;4734861;30;20220;-68
2023/11/15 06:18:17;;;;;;;3.00;2.83;;;;;;;7.34;100.00;99970.06;4734364;30;20212;-68
2023/11/15 06:20:49;;;;;;;1.42;1.00;;;;;;;7.38;100.00;99971.31;4748355;30;20501;-68
2023/11/15 06:23:19;;;;;;;1.33;0.85;;;;;;;7.35;100.00;99974.41;4735916;30;20228;-68
2023/11/15 06:25:51;;;;;;;1.23;0.65;;;;;;;7.31;100.00;99975.84;4733753;30;20273;-68
2023/11/15 06:28:23;;;;;;;1.45;0.70;;;;;;;7.37;100.00;99984.97;4734438;30;20200;-68
2023/11/15 06:30:55;;;;;;;0.90;0.70;;;;;;;7.38;100.00;99995.53;4745226;30;20262;-68
2023/11/15 06:33:25;;;;;;;1.58;0.80;;;;;;;7.36;100.00;99997.59;4746075;30;20578;-68
2023/11/15 06:35:58;;;;;;;1.30;1.15;;;;;;;7.39;100.00;99996.38;4731405;30;20603;-67
2023/11/15 06:38:30;;;;;;;1.98;1.05;;;;;;;7.44;100.00;100010.03;4746784;30;20227;-67
2023/11/15 06:41:02;;;;;;;3.00;1.33;;;;;;;7.43;100.00;100019.16;4745626;30;20286;-64
2023/11/15 06:43:34;;;;;;;1.27;0.70;;;;;;;7.41;100.00;100022.03;4748295;30;20231;-68
2023/11/15 06:46:05;;;;;;;2.67;1.58;;;;;;;7.35;100.00;100028.25;4734282;30;20200;-67
2023/11/15 06:48:39;;;;;;;4.40;1.30;;;;;;;7.37;100.00;100042.31;4735344;30;20307;-67
2023/11/15 06:51:10;;;;;;;1.52;1.15;;;;;;;7.38;100.00;100035.06;4734254;30;20200;-66
2023/11/15 06:53:40;;;;;;;1.30;1.05;;;;;;;7.32;100.00;100044.78;4747678;30;20228;-68
2023/11/15 06:56:13;;;;;;;1.02;0.85;;;;;;;7.35;100.00;100047.09;4749243;30;20287;-66
2023/11/15 06:58:51;;;;;;;2.67;1.00;;;;;;;7.27;100.00;100049.94;4734406;30;20757;-66
2023/11/15 07:01:23;;;;;;;1.52;1.15;;;;;;;7.27;100.00;100052.63;4730861;30;20209;-67
2023/11/15 07:03:56;;;;;;;1.67;1.33;;;;;;;7.27;100.00;100060.69;4731996;30;20228;-67
2023/11/15 07:06:27;;;;;;;1.85;1.00;;;;;;;7.29;100.00;100057.81;4745679;30;20205;-66
2023/11/15 07:08:59;;;;;;;1.90;1.45;;;;;;;7.36;100.00;100064.03;4732162;30;20630;-66
2023/11/15 07:11:31;;;;;;;1.90;1.25;;;;;;;7.37;100.00;100071.91;4730243;30;20215;-68
2023/11/15 07:14:06;;;;;;;2.20;1.13;;;;;;;7.43;100.00;100073.81;4742561;30;20231;-67
2023/11/15 07:16:39;;;;;;;2.00;1.63;;;;;;;7.40;100.00;100079.63;4733066;30;20213;-67
2023/11/15 07:19:09;;;;;;;2.92;1.75;;;;;;;7.50;100.00;100083.78;4731637;30;20212;-68
2023/11/15 07:21:40;;;;;;;1.55;0.90;;;;;;;7.40;100.00;100090.38;4730877;30;20752;-67
2023/11/15 07:24:12;;;;;;;1.77;1.05;;;;;;;7.54;100.00;100087.72;4732110;30;20231;-68
2023/11/15 07:26:44;;;;;;;1.30;0.90;;;;;;;7.54;100.00;100101.19;4743807;30;20215;-66
2023/11/15 07:29:19;;;;;;;1.48;1.10;;;;;;;7.49;100.00;100106.34;4731745;30;20208;-66
2023/11/15 07:31:52;;;;;;;1.02;0.90;;;;;;;7.57;100.00;100111.53;4730455;30;20234;-66
2023/11/15 07:34:24;;;;;;;4.25;1.65;;;;;;;7.58;100.00;100119.44;4731223;30;20274;-66
2023/11/15 07:36:55;;;;;;;1.27;1.10;;;;;;;7.54;100.00;100122.72;4731115;30;20216;-67
2023/11/15 07:39:27;;;;;;;1.20;0.82;;;;;;;7.66;100.00;100124.63;4731452;30;20280;-67
2023/11/15 07:41:58;;;;;;;1.67;1.00;;;;;;;7.63;100.00;100122.34;4731612;30;20212;-66
2023/11/15 07:44:32;;;;;;;1.90;1.40;;;;;;;7.71;100.00;100135.63;4732127;30;20235;-67
2023/11/15 07:47:03;;;;;;;2.50;0.98;;;;;;;7.77;100.00;100147.47;4742212;30;20261;-67
2023/11/15 07:49:36;;;;;;;1.10;1.00;;;;;;;7.76;100.00;100138.53;4746368;30;20208;-66
2023/11/15 07:52:08;;;;;;;3.92;1.05;;;;;;;7.84;100.00;100149.13;4746962;30;20277;-67
2023/11/15 07:54:39;;;;;;;2.15;1.55;;;;;;;7.83;100.00;100160.13;4731054;30;20224;-66
2023/11/15 07:57:11;;;;;;;1.67;1.02;;;;;;;7.98;100.00;100168.03;4731979;30;20314;-66
2023/11/15 07:59:44;;;;;;;1.40;1.00;;;;;;;8.02;100.00;100167.44;4747700;30;20266;-68
2023/11/15 08:02:16;;;;;;;1.15;0.90;;;;;;;7.97;100.00;100171.75;4731631;30;20611;-68
2023/11/15 08:04:48;;;;;;;4.38;1.75;;;;;;;8.05;100.00;100177.78;4745283;30;20765;-68
2023/11/15 08:07:21;;;;;;;1.95;1.35;;;;;;;8.03;100.00;100185.28;4746377;30;20200;-67
2023/11/15 08:09:52;;;;;;;1.55;1.27;;;;;;;8.04;100.00;100181.53;4732160;30;20650;-65
2023/11/15 08:12:22;;;;;;;1.73;1.58;;;;;;;8.01;100.00;100190.00;4746444;30;20215;-67
2023/11/15 08:14:55;;;;;;;1.63;1.00;;;;;;;8.09;100.00;100200.59;4731426;30;20253;-66
2023/11/15 08:17:26;;;;;;;2.38;1.25;;;;;;;8.01;100.00;100206.19;4733458;30;20232;-67
2023/11/15 08:19:57;;;;;;;1.23;0.70;;;;;;;8.01;100.00;100208.88;4749768;30;20204;-68
2023/11/15 08:22:30;;;;;;;1.67;1.10;;;;;;;8.21;100.00;100201.69;4734544;30;20683;-68
2023/11/15 08:25:00;;;;;;;3.35;1.35;;;;;;;8.09;100.00;100224.84;4734395;30;20227;-67
2023/11/15 08:27:32;;;;;;;4.82;1.70;;;;;;;8.21;100.00;100220.56;4735945;30;20645;-66
2023/11/15 08:30:10;;;;;;;2.72;1.90;;;;;;;8.15;100.00;100228.59;4735356;30;20271;-68
2023/11/15 08:32:43;;;;;;;1.83;1.63;;;;;;;8.17;100.00;100226.56;4734824;30;20200;-66
2023/11/15 08:35:17;;;;;;;2.20;1.58;;;;;;;8.27;100.00;100238.63;4734445;30;20220;-70
2023/11/15 08:37:48;;;;;;;3.88;1.75;;;;;;;8.20;100.00;100243.13;4731579;30;20219;-65
2023/11/15 08:40:22;;;;;;;1.88;1.17;;;;;;;8.18;100.00;100249.78;4734966;30;20200;-68
2023/11/15 08:42:59;;;;;;;2.47;1.95;;;;;;;8.31;100.00;100254.41;4748626;30;20262;-68
2023/11/15 08:45:32;;;;;;;2.25;1.60;;;;;;;8.26;100.00;100254.97;4735031;30;20270;-68
2023/11/15 08:48:05;;;;;;;6.57;3.40;;;;;;;8.31;100.00;100266.03;4751322;30;20204;-67
2023/11/15 08:50:36;;;;;;;4.82;1.92;;;;;;;8.27;100.00;100279.06;4738166;30;20623;-67
2023/11/15 08:53:10;;;;;;;3.20;1.55;;;;;;;8.19;100.00;100272.97;4738050;30;20223;-67
2023/11/15 08:55:44;;;;;;;2.65;1.27;;;;;;;8.17;100.00;100278.59;4736895;30;20223;-66
2023/11/15 08:58:16;;;;;;;2.40;1.92;;;;;;;8.33;100.00;100279.31;4734525;30;20212;-66
2023/11/15 09:00:53;;;;;;;2.65;2.00;;;;;;;8.26;100.00;100290.03;4749751;30;20215;-68
2023/11/15 09:03:23;;;;;;;3.22;1.65;;;;;;;8.22;100.00;100295.00;4734612;30;20579;-68
2023/11/15 09:05:55;;;;;;;2.75;1.77;;;;;;;8.31;100.00;100308.31;4734435;30;20696;-67
2023/11/15 09:08:27;;;;;;;2.45;1.00;;;;;;;8.29;100.00;100301.25;4733499;30;20219;-66
2023/11/15 09:10:58;;;;;;;2.58;1.48;;;;;;;8.36;100.00;100308.53;4730622;30;20218;-67
2023/11/15 09:13:33;;;;;;;1.65;1.17;;;;;;;8.43;100.00;100309.38;4734015;30;20347;-67
2023/11/15 09:16:06;;;;;;;1.63;1.52;;;;;;;8.16;100.00;100319.22;4733121;30;20557;-67
2023/11/15 09:18:38;;;;;;;2.88;1.00;;;;;;;8.18;100.00;100317.16;4734649;30;20212;-66
2023/11/15 09:21:10;;;;;;;2.55;1.30;;;;;;;8.27;100.00;100319.47;4734466;30;20219;-65
2023/11/15 09:23:41;;;;;;;4.15;2.30;;;;;;;8.38;100.00;100328.88;4733839;30;20228;-66
2023/11/15 09:26:19;;;;;;;3.88;1.45;;;;;;;8.32;100.00;100328.84;4748631;30;20303;-66
2023/11/15 09:28:51;;;;;;;2.10;1.10;;;;;;;8.47;100.00;100337.63;4736281;30;20269;-66
2023/11/15 09:31:23;;;;;;;2.80;1.45;;;;;;;8.26;100.00;100339.38;4748333;30;20770;-66
2023/11/15 09:33:53;;;;;;;3.88;2.42;;;;;;;8.40;100.00;100350.25;4747359;30;20591;-67
2023/11/15 09:36:24;;;;;;;2.15;1.40;;;;;;;8.36;100.00;100349.81;4733050;30;20739;-68
2023/11/15 09:38:57;;;;;;;1.35;0.95;;;;;;;8.36;100.00;100346.28;4733666;30;20207;-66
2023/11/15 09:41:30;;;;;;;2.38;2.13;;;;;;;8.28;100.00;100356.16;4735240;30;20287;-66
2023/11/15 09:44:08;;;;;;;2.60;1.58;;;;;;;8.34;100.00;100361.81;4748717;30;20328;-66
2023/11/15 09:46:45;;;;;;;6.22;1.55;;;;;;;8.28;100.00;100356.16;4733283;30;20289;-66
2023/11/15 09:49:16;;;;;;;1.55;1.20;;;;;;;8.32;100.00;100362.03;4747443;30;20206;-67
2023/11/15 09:51:48;;;;;;;4.85;1.80;;;;;;;8.33;100.00;100373.66;4735811;30;20203;-67
2023/11/15 09:54:22;;;;;;;1.48;1.10;;;;;;;8.42;100.00;100365.19;4733226;30;20228;-68
2023/11/15 09:56:55;;;;;;;2.97;1.50;;;;;;;8.64;100.00;100374.81;4746989;30;20306;-65
2023/11/15 09:59:26;;;;;;;2.55;1.55;;;;;;;8.56;100.00;100374.16;4732235;30;20293;-66
2023/11/15 10:01:59;;;;;;;2.08;1.02;;;;;;;8.80;100.00;100375.50;4747647;30;20216;-67
2023/11/15 10:04:30;;;;;;;3.55;2.05;;;;;;;9.04;100.00;100383.03;4732449;30;20287;-67
2023/11/15 10:07:02;;;;;;;2.30;1.45;;;;;;;8.96;100.00;100388.59;4733130;30;20196;-67
2023/11/15 10:09:39;;;;;;;2.15;1.90;;;;;;;8.77;100.00;100382.13;4731415;30;20277;-67
2023/11/15 10:12:10;;;;;;;3.17;1.77;;;;;;;8.86;100.00;100394.38;4730906;30;20220;-67
2023/11/15 10:14:52;;;;;;;2.60;1.83;;;;;;;9.01;100.00;100396.91;4734012;30;20236;-68
2023/11/15 10:17:42;;;;;;;2.10;1.75;;;;;;;9.16;100.00;100393.00;4732951;30;20227;-67
2023/11/15 10:20:25;;;;;;;2.35;1.38;;;;;;;9.36;100.00;100392.19;4728977;30;20308;-65
2023/11/15 10:22:59;;;;;;;3.72;2.35;;;;;;;9.45;100.00;100399.06;4747875;30;20211;-66
2023/11/15 10:25:31;;;;;;;3.25;2.45;;;;;;;9.14;99.10;100394.25;4733022;30;20205;-69
2023/11/15 10:28:07;;;;;;;1.90;1.58;;;;;;;9.06;100.00;100400.66;4734645;30;20215;-66
2023/11/15 10:30:38;;;;;;;3.60;2.00;;;;;;;9.21;100.00;100400.50;4732485;30;20211;-67
2023/11/15 10:33:14;;;;;;;2.25;1.58;;;;;;;9.12;99.73;100407.97;4734017;30;20224;-68
2023/11/15 10:35:44;;;;;;;4.28;2.13;;;;;;;8.95;100.00;100406.69;4731827;30;20216;-68
2023/11/15 10:38:23;;;;;;;2.63;1.75;;;;;;;8.82;100.00;100412.00;4746502;30;20251;-66
2023/11/15 10:40:54;;;;;;;2.22;1.52;;;;;;;8.94;100.00;100423.06;4746429;30;20374;-67
2023/11/15 10:43:26;;;;;;;2.65;1.27;;;;;;;8.72;100.00;100411.56;4732626;30;20224;-67
2023/11/15 10:46:02;;;;;;;2.15;1.30;;;;;;;8.88;100.00;100424.72;4746526;30;20590;-66
2023/11/15 10:48:39;;;;;;;3.75;1.70;;;;;;;9.04;100.00;100424.34;4732631;30;20210;-67
2023/11/15 10:51:20;;;;;;;3.63;1.45;;;;;;;8.74;100.00;100428.38;4749017;30;20204;-68
2023/11/15 10:53:52;;;;;;;3.60;2.88;;;;;;;8.72;100.00;100427.75;4748058;30;20250;-67
2023/11/15 10:56:23;;;;;;;2.45;1.67;;;;;;;8.87;100.00;100433.81;4750824;30;20208;-66
2023/11/15 10:58:57;;;;;;;3.13;1.20;;;;;;;8.77;100.00;100435.22;4747977;30;20220;-67
2023/11/15 11:01:34;;;;;;;3.20;1.35;;;;;;;8.86;100.00;100442.94;4751595;30;20212;-67
2023/11/15 11:04:10;;;;;;;1.38;1.15;;;;;;;8.77;100.00;100446.88;4746348;30;20702;-67
2023/11/15 11:06:50;;;;;;;2.53;1.10;;;;;;;8.76;100.00;100450.63;4733347;30;20598;-67
2023/11/15 11:09:27;;;;;;;1.20;0.93;;;;;;;8.79;100.00;100450.22;4746743;30;20266;-66
2023/11/15 11:12:05;;;;;;;1.35;1.13;;;;;;;9.06;100.00;100460.06;4748318;30;20218;-67
2023/11/15 11:14:37;;;;;;;2.40;1.65;;;;;;;8.93;100.00;100462.72;4744675;30;20606;-67
2023/11/15 11:17:33;;;;;;;2.00;1.40;;;;;;;8.77;100.00;100465.75;4749626;30;20212;-67
2023/11/15 11:20:27;;;;;;;2.60;1.20;;;;;;;8.74;100.00;100468.84;4748115;30;20218;-66
2023/11/15 11:23:16;;;;;;;1.65;0.85;;;;;;;8.68;100.00;100466.94;4747961;30;20299;-67
2023/11/15 11:25:50;;;;;;;1.15;0.85;;;;;;;8.87;100.00;100471.59;4748101;30;20226;-67
2023/11/15 11:28:23;;;;;;;2.90;1.77;;;;;;;8.90;100.00;100482.00;4748623;30;20215;-67
2023/11/15 11:31:20;;;;;;;1.30;1.13;;;;;;;8.79;100.00;100474.50;4739574;30;20549;-67
2023/11/15 11:34:11;;;;;;;2.22;1.20;;;;;;;8.73;100.00;100486.06;4753380;30;20759;-67
2023/11/15 11:36:53;;;;;;;1.60;0.90;;;;;;;8.76;100.00;100485.69;4749092;30;20707;-67
2023/11/15 11:39:55;;;;;;;2.75;1.80;;;;;;;8.86;100.00;100491.53;4730552;30;20224;-67
2023/11/15 11:42:31;;;;;;;1.38;1.00;;;;;;;8.96;100.00;100491.16;4748548;30;20204;-68
2023/11/15 11:45:03;;;;;;;1.85;1.10;;;;;;;9.02;100.00;100499.28;4753081;30;20224;-66
2023/11/15 11:47:40;;;;;;;1.52;0.80;;;;;;;8.96;100.00;100502.78;4733208;30;20578;-68
2023/11/15 11:50:12;;;;;;;1.90;1.08;;;;;;;8.87;100.00;100503.97;4747085;30;20231;-67
2023/11/15 11:52:45;;;;;;;1.75;0.85;;;;;;;8.96;100.00;100497.38;4750636;30;20212;-66
2023/11/15 11:55:17;;;;;;;1.30;1.00;;;;;;;8.94;100.00;100499.47;4736609;30;20215;-67